createdAt,value
2022-11-14T00:03:06.292Z,13.57
2022-11-14T00:08:15.630Z,13.23
2022-11-14T00:13:18.821Z,13.05
2022-11-14T00:18:20.998Z,13.07
2022-11-14T00:23:22.893Z,13.55
2022-11-14T00:28:24.667Z,13.50
2022-11-14T00:33:26.392Z,13.52
2022-11-14T00:38:28.587Z,12.85
2022-11-14T00:43:30.726Z,11.57
2022-11-14T00:48:32.864Z,13.27
2022-11-14T00:53:34.886Z,12.77
2022-11-14T00:58:36.622Z,11.95
2022-11-14T01:03:38.360Z,13.25
2022-11-14T01:08:40.042Z,13.43
2022-11-14T01:13:41.944Z,13.05
2022-11-14T01:18:43.659Z,12.43
2022-11-14T01:23:45.445Z,14.07
2022-11-14T01:28:47.216Z,13.35
2022-11-14T01:33:53.985Z,13.45
2022-11-14T01:38:55.953Z,12.85
2022-11-14T01:43:57.690Z,12.80
2022-11-14T01:49:15.973Z,13.60
2022-11-14T01:54:30.932Z,14.15
2022-11-14T01:59:37.727Z,11.98
2022-11-14T02:04:43.537Z,12.48
2022-11-14T02:09:47.791Z,11.02
2022-11-14T02:14:52.753Z,11.35
2022-11-14T02:20:05.056Z,12.38
2022-11-14T02:25:09.294Z,12.43
2022-11-14T02:30:14.537Z,11.60
2022-11-14T02:35:16.417Z,12.25
2022-11-14T02:40:18.358Z,11.45
2022-11-14T02:45:20.952Z,11.45
2022-11-14T02:50:22.793Z,12.27
2022-11-14T02:55:24.679Z,9.98
2022-11-14T03:00:26.652Z,11.38
2022-11-14T03:05:28.412Z,10.35
2022-11-14T03:10:30.180Z,10.77
2022-11-14T03:15:31.880Z,11.13
2022-11-14T03:20:34.783Z,11.27
2022-11-14T03:25:36.568Z,11.85
2022-11-14T03:30:38.277Z,10.00
2022-11-14T03:35:43.196Z,10.35
2022-11-14T03:40:45.500Z,10.30
2022-11-14T03:45:48.100Z,10.23
2022-11-14T03:50:49.829Z,10.18
2022-11-14T03:55:52.454Z,9.73
2022-11-14T04:00:56.325Z,10.95
2022-11-14T04:05:58.146Z,11.93
2022-11-14T04:10:59.884Z,11.05
2022-11-14T04:16:01.772Z,10.93
2022-11-14T04:21:03.615Z,10.50
2022-11-14T04:26:05.453Z,10.25
2022-11-14T04:31:07.209Z,9.98
2022-11-14T04:36:09.164Z,9.70
2022-11-14T04:41:10.956Z,8.93
2022-11-14T04:46:12.679Z,9.20
2022-11-14T04:51:14.451Z,9.75
2022-11-14T04:56:16.221Z,8.52
2022-11-14T05:01:18.498Z,9.73
2022-11-14T05:06:20.258Z,10.35
2022-11-14T05:11:26.594Z,10.63
2022-11-14T05:16:30.638Z,11.15
2022-11-14T05:21:32.418Z,9.98
2022-11-14T05:26:34.281Z,10.45
2022-11-14T05:31:36.031Z,9.82
2022-11-14T05:36:37.967Z,11.00
2022-11-14T05:41:39.693Z,11.20
2022-11-14T05:46:41.514Z,9.27
2022-11-14T05:51:43.254Z,10.05
2022-11-14T05:56:45.000Z,9.90
2022-11-14T06:01:46.748Z,9.80
2022-11-14T06:06:48.550Z,10.10
2022-11-14T06:11:50.317Z,10.23
2022-11-14T06:16:52.007Z,9.65
2022-11-14T06:21:53.715Z,9.13
2022-11-14T06:26:55.422Z,12.48
2022-11-14T06:31:57.131Z,10.18
2022-11-14T06:36:58.866Z,9.50
2022-11-14T06:42:00.762Z,9.00
2022-11-14T06:47:02.560Z,8.90
2022-11-14T06:52:04.683Z,8.55
2022-11-14T06:57:06.509Z,9.85
2022-11-14T07:02:15.389Z,9.32
2022-11-14T07:07:19.592Z,9.13
2022-11-14T07:12:21.454Z,10.85
2022-11-14T07:17:27.130Z,9.90
2022-11-14T07:22:31.645Z,10.27
2022-11-14T07:27:33.371Z,10.02
2022-11-14T07:32:35.149Z,8.70
2022-11-14T07:37:36.901Z,9.15
2022-11-14T07:42:38.806Z,8.98
2022-11-14T07:47:40.828Z,9.45
2022-11-14T07:52:42.768Z,9.30
2022-11-14T07:57:48.984Z,10.80
2022-11-14T08:02:51.303Z,10.00
2022-11-14T08:07:53.518Z,9.68
2022-11-14T08:13:30.515Z,10.05
2022-11-14T08:18:26.722Z,10.15
2022-11-14T08:23:28.583Z,11.13
2022-11-14T08:28:30.685Z,10.90
2022-11-14T08:33:32.824Z,9.77
2022-11-14T08:38:34.800Z,10.15
2022-11-14T08:43:36.503Z,9.45
2022-11-14T08:48:38.387Z,8.57
2022-11-14T08:53:40.169Z,9.68
2022-11-14T08:58:42.148Z,8.70
2022-11-14T09:03:44.118Z,8.20
2022-11-14T09:08:46.187Z,7.50
2022-11-14T09:13:48.066Z,8.50
2022-11-14T09:18:49.818Z,8.57
2022-11-14T09:23:51.537Z,8.80
2022-11-14T09:28:53.279Z,9.07
2022-11-14T09:33:55.080Z,8.88
2022-11-14T09:38:56.779Z,8.73
2022-11-14T09:44:09.828Z,9.15
2022-11-14T09:49:37.888Z,9.45
2022-11-14T09:55:12.476Z,9.00
2022-11-14T10:00:20.844Z,8.52
2022-11-14T10:05:45.933Z,9.35
2022-11-14T10:10:58.584Z,9.60
2022-11-14T10:16:07.110Z,8.95
2022-11-14T10:21:51.238Z,9.52
2022-11-14T10:27:00.446Z,9.18
2022-11-14T10:32:10.657Z,9.27
2022-11-14T10:37:21.752Z,9.98
2022-11-14T10:42:31.167Z,9.38
2022-11-14T10:47:43.631Z,9.10
2022-11-14T10:52:46.773Z,9.68
2022-11-14T10:57:48.624Z,9.35
2022-11-14T11:02:59.198Z,9.73
2022-11-14T11:13:54.148Z,10.13
2022-11-14T11:19:15.727Z,10.73
2022-11-14T11:24:33.988Z,10.85
2022-11-14T11:29:35.693Z,10.93
2022-11-14T11:34:37.533Z,10.70
2022-11-14T11:39:50.458Z,10.77
2022-11-14T11:44:59.233Z,12.10
2022-11-14T11:50:02.262Z,11.70
2022-11-14T11:55:25.250Z,11.32
2022-11-14T12:00:27.073Z,11.98
2022-11-14T12:05:53.067Z,11.73
2022-11-14T12:10:57.053Z,12.13
2022-11-14T12:16:11.790Z,12.25
2022-11-14T12:21:26.806Z,12.60
2022-11-14T12:27:06.473Z,12.35
2022-11-14T12:32:14.265Z,13.80
2022-11-14T12:37:18.473Z,12.30
2022-11-14T12:42:21.737Z,13.13
2022-11-14T12:47:26.001Z,13.10
2022-11-14T12:52:45.869Z,13.32
2022-11-14T12:58:11.740Z,9.18
2022-11-14T13:03:35.400Z,12.85
2022-11-14T13:09:02.116Z,13.70
2022-11-14T13:14:27.458Z,14.20
2022-11-14T13:19:47.940Z,13.48
2022-11-14T13:24:58.767Z,13.75
2022-11-14T13:30:02.777Z,13.35
2022-11-14T13:35:05.598Z,13.18
2022-11-14T13:40:30.535Z,14.15
2022-11-14T13:45:41.338Z,14.07
2022-11-14T13:56:05.520Z,15.35
2022-11-14T14:01:29.642Z,14.20
2022-11-14T14:07:03.165Z,14.73
2022-11-14T14:12:17.484Z,14.35
2022-11-14T14:17:43.984Z,14.45
2022-11-14T14:23:17.614Z,15.63
2022-11-14T14:28:39.010Z,14.15
2022-11-14T14:33:46.373Z,14.88
2022-11-14T14:38:48.528Z,16.65
2022-11-14T14:43:55.466Z,15.57
2022-11-14T14:48:59.225Z,16.73
2022-11-14T14:54:01.285Z,15.93
2022-11-14T14:59:17.687Z,17.60
2022-11-14T15:04:21.202Z,16.35
2022-11-14T15:09:26.016Z,19.02
2022-11-14T15:14:31.073Z,18.02
2022-11-14T15:19:42.900Z,21.52
2022-11-14T15:24:45.040Z,20.65
2022-11-14T15:29:55.621Z,20.40
2022-11-14T15:35:25.064Z,16.65
2022-11-14T15:40:27.501Z,21.57
2022-11-14T15:45:39.549Z,21.85
2022-11-14T15:50:42.193Z,21.40
2022-11-14T15:55:43.920Z,21.15
2022-11-14T16:00:50.749Z,20.17
2022-11-14T16:05:52.626Z,21.50
2022-11-14T16:10:54.329Z,20.02
2022-11-14T16:15:56.276Z,20.63
2022-11-14T16:20:59.426Z,19.98
2022-11-14T16:26:01.149Z,19.65
2022-11-14T16:31:02.858Z,20.73
2022-11-14T16:36:04.705Z,19.67
2022-11-14T16:41:08.369Z,20.52
2022-11-14T16:46:11.322Z,18.42
2022-11-14T16:51:40.896Z,19.45
2022-11-14T16:56:34.762Z,17.65
2022-11-14T17:01:37.266Z,18.02
2022-11-14T17:06:39.185Z,18.48
2022-11-14T17:11:40.919Z,17.88
2022-11-14T17:16:42.666Z,17.90
2022-11-14T17:21:44.573Z,15.65
2022-11-14T17:26:46.581Z,16.60
2022-11-14T17:31:48.285Z,17.25
2022-11-14T17:36:50.229Z,16.02
2022-11-14T17:41:52.117Z,14.82
2022-11-14T17:46:53.878Z,14.63
2022-11-14T17:51:55.837Z,14.45
2022-11-14T17:56:59.023Z,14.23
2022-11-14T18:02:03.222Z,14.48
2022-11-14T18:07:05.135Z,13.75
2022-11-14T18:12:07.429Z,13.80
2022-11-14T18:17:13.375Z,13.88
2022-11-14T18:22:15.335Z,13.82
2022-11-14T18:27:17.208Z,13.82
2022-11-14T18:32:19.059Z,13.88
2022-11-14T18:37:22.313Z,13.60
2022-11-14T18:42:24.276Z,14.43
2022-11-14T18:47:26.054Z,14.27
2022-11-14T18:52:27.922Z,14.43
2022-11-14T18:57:29.754Z,14.13
2022-11-14T19:02:31.597Z,15.55
2022-11-14T19:07:33.489Z,14.85
2022-11-14T19:12:36.613Z,15.18
2022-11-14T19:17:38.608Z,17.00
2022-11-14T19:22:40.429Z,15.07
2022-11-14T19:27:42.316Z,16.80
2022-11-14T19:32:44.071Z,15.00
2022-11-14T19:37:45.818Z,16.40
2022-11-14T19:42:47.628Z,15.88
2022-11-14T19:47:49.384Z,16.35
2022-11-14T19:52:52.117Z,15.85
2022-11-14T19:57:53.873Z,16.58
2022-11-14T20:02:55.737Z,16.27
2022-11-14T20:07:57.524Z,15.77
2022-11-14T20:12:59.247Z,15.77
2022-11-14T20:18:01.017Z,17.10
2022-11-14T20:23:02.791Z,16.77
2022-11-14T20:28:08.055Z,16.88
2022-11-14T20:33:10.603Z,16.40
2022-11-14T20:38:12.531Z,16.60
2022-11-14T20:43:14.257Z,20.48
2022-11-14T20:48:16.082Z,20.63
2022-11-14T20:53:18.341Z,19.38
2022-11-14T20:58:21.021Z,18.98
2022-11-14T21:03:23.517Z,18.75
2022-11-14T21:08:25.435Z,18.17
2022-11-14T21:13:46.457Z,18.60
2022-11-14T21:18:48.479Z,18.00
2022-11-14T21:23:50.999Z,17.65
2022-11-14T21:28:58.477Z,16.88
2022-11-14T21:34:06.539Z,18.63
2022-11-14T21:39:08.436Z,17.88
2022-11-14T21:44:16.621Z,16.38
2022-11-14T21:49:18.650Z,19.83
2022-11-14T21:54:20.389Z,22.98
2022-11-14T21:59:26.517Z,22.42
2022-11-14T22:04:28.601Z,20.90
2022-11-14T22:09:32.991Z,20.05
2022-11-14T22:14:34.951Z,18.35
2022-11-14T22:19:36.676Z,20.02
2022-11-14T22:24:38.470Z,19.95
2022-11-14T22:29:40.208Z,18.42
2022-11-14T22:34:41.993Z,19.80
2022-11-14T22:39:43.852Z,19.17
2022-11-14T22:44:45.794Z,20.30
2022-11-14T22:49:47.592Z,20.73
2022-11-14T22:54:49.319Z,18.58
2022-11-14T22:59:51.049Z,17.90
2022-11-14T23:04:52.916Z,18.60
2022-11-14T23:09:54.670Z,17.08
2022-11-14T23:14:56.474Z,17.45
2022-11-14T23:19:58.381Z,17.48
2022-11-14T23:25:00.186Z,15.75
2022-11-14T23:30:02.145Z,15.80
2022-11-14T23:35:04.189Z,16.88
2022-11-14T23:40:06.619Z,15.45
2022-11-14T23:45:08.780Z,15.52
2022-11-14T23:50:10.641Z,15.75
2022-11-14T23:55:12.455Z,16.00
